Time;durP1;ratioP1;P1;durP2;ratioP2;P2;SDS_P1;SDS_P2;PMS_P1;PMS_P2;Temp;Humidity;BMP_temperature;BMP_pressure;BME280_temperature;BME280_humidity;BME280_pressure;Samples;Min_cycle;Max_cycle;Signal;HPM_P1;HPM_P2
2022/06/06 00:01:37;;;;;;;30.27;6.80;;;16.90;46.40;;;;;;4989859;28;20485;-68
2022/06/06 00:04:04;;;;;;;28.57;6.60;;;16.90;46.60;;;;;;4990098;28;20465;-69
2022/06/06 00:06:32;;;;;;;30.30;6.50;;;16.90;46.40;;;;;;4990111;28;20487;-69
2022/06/06 00:08:59;;;;;;;29.37;7.60;;;16.90;46.60;;;;;;4989166;28;20461;-69
2022/06/06 00:11:26;;;;;;;30.80;7.30;;;16.90;46.70;;;;;;4990493;28;20469;-69
2022/06/06 00:13:52;;;;;;;31.53;7.63;;;16.90;46.80;;;;;;4990200;28;20461;-69
2022/06/06 00:16:19;;;;;;;29.50;8.00;;;16.90;47.10;;;;;;4990708;28;20461;-69
2022/06/06 00:18:46;;;;;;;29.40;6.93;;;17.00;46.90;;;;;;4988506;28;20473;-69
2022/06/06 00:21:12;;;;;;;32.37;7.53;;;16.90;47.10;;;;;;4990143;28;20465;-69
2022/06/06 00:23:41;;;;;;;31.70;7.57;;;17.00;47.20;;;;;;4988483;28;20485;-69
2022/06/06 00:26:10;;;;;;;29.67;7.57;;;17.00;47.20;;;;;;4989859;28;20460;-68
2022/06/06 00:28:38;;;;;;;31.73;8.30;;;17.00;47.30;;;;;;4988523;28;20468;-69
2022/06/06 00:36:32;;;;;;;31.83;8.07;;;17.00;47.00;;;;;;4989251;28;20579;-69
2022/06/06 00:39:00;;;;;;;30.33;7.83;;;17.00;47.00;;;;;;4988724;28;20489;-70
2022/06/06 00:41:27;;;;;;;30.40;7.50;;;17.00;46.90;;;;;;4989966;28;20456;-69
2022/06/06 00:44:05;;;;;;;30.57;7.87;;;17.00;47.20;;;;;;4989508;28;20487;-69
2022/06/06 00:46:32;;;;;;;30.87;7.47;;;17.00;48.30;;;;;;4988770;28;20459;-69
2022/06/06 00:48:59;;;;;;;33.13;7.97;;;17.00;47.00;;;;;;4989800;28;20468;-69
2022/06/06 00:51:26;;;;;;;32.17;8.17;;;17.00;46.90;;;;;;4987504;28;20473;-70
2022/06/06 00:53:55;;;;;;;33.90;8.10;;;17.00;46.50;;;;;;4988642;28;20941;-69
2022/06/06 00:56:29;;;;;;;34.53;8.37;;;17.00;46.70;;;;;;4989583;28;20555;-69
2022/06/06 00:59:00;;;;;;;30.27;7.70;;;16.90;46.80;;;;;;4988650;28;20467;-69
2022/06/06 01:01:28;;;;;;;29.57;8.40;;;16.90;46.40;;;;;;4987588;28;20469;-69
2022/06/06 01:03:58;;;;;;;30.50;9.00;;;16.90;46.60;;;;;;4988756;28;20484;-69
2022/06/06 01:06:29;;;;;;;35.73;8.80;;;16.90;46.50;;;;;;4989690;28;20464;-69
2022/06/06 01:08:58;;;;;;;32.10;7.83;;;16.90;46.60;;;;;;4989351;28;20547;-69
2022/06/06 01:11:26;;;;;;;32.67;8.93;;;16.90;46.50;;;;;;4987589;28;20472;-69
2022/06/06 01:13:55;;;;;;;33.47;8.30;;;16.90;46.80;;;;;;4989207;28;20457;-69
2022/06/06 01:16:33;;;;;;;32.70;9.10;;;16.90;46.80;;;;;;4989094;28;20519;-69
2022/06/06 01:19:14;;;;;;;31.90;8.03;;;16.90;46.80;;;;;;4989847;28;20704;-70
2022/06/06 01:22:31;;;;;;;31.60;8.60;;;16.80;46.60;;;;;;4988283;28;20567;-69
2022/06/06 01:25:13;;;;;;;34.10;8.37;;;16.80;47.00;;;;;;4989443;28;20539;-69
2022/06/06 01:27:51;;;;;;;29.77;7.50;;;16.90;47.10;;;;;;4988644;28;20456;-69
2022/06/06 01:30:23;;;;;;;30.97;7.70;;;16.90;47.30;;;;;;4987498;28;20452;-70
2022/06/06 01:32:53;;;;;;;33.07;8.10;;;16.80;46.90;;;;;;4988229;28;20581;-70
2022/06/06 01:35:27;;;;;;;31.50;7.90;;;16.80;46.70;;;;;;4987673;28;20453;-69
2022/06/06 01:37:54;;;;;;;32.13;8.40;;;16.80;47.10;;;;;;4988693;28;20449;-69
2022/06/06 01:40:23;;;;;;;30.13;8.73;;;16.80;47.70;;;;;;4987420;28;21035;-69
2022/06/06 01:42:55;;;;;;;30.60;8.00;;;16.80;46.80;;;;;;4986266;28;21146;-70
2022/06/06 01:45:29;;;;;;;31.67;8.10;;;16.80;47.00;;;;;;4987822;28;20467;-70
2022/06/06 01:48:04;;;;;;;28.73;7.40;;;16.80;47.00;;;;;;4988599;28;20448;-69
2022/06/06 01:50:32;;;;;;;32.30;8.20;;;16.80;47.10;;;;;;4988671;28;20441;-69
2022/06/06 01:53:01;;;;;;;30.93;8.20;;;16.80;46.90;;;;;;4986054;28;20488;-70
2022/06/06 01:55:51;;;;;;;30.90;8.60;;;16.70;46.50;;;;;;4988580;28;20853;-69
2022/06/06 01:58:21;;;;;;;34.07;8.57;;;16.70;46.60;;;;;;4988543;28;20461;-68
2022/06/06 02:00:51;;;;;;;32.90;8.80;;;16.60;46.20;;;;;;4987020;28;20483;-69
2022/06/06 02:03:18;;;;;;;34.67;8.87;;;16.60;46.20;;;;;;4986672;28;20492;-69
2022/06/06 02:05:45;;;;;;;32.57;8.73;;;16.60;46.70;;;;;;4986633;28;20460;-69
2022/06/06 02:08:14;;;;;;;34.70;10.00;;;16.50;46.50;;;;;;4987792;28;20465;-69
2022/06/06 02:10:41;;;;;;;31.20;8.50;;;16.50;46.40;;;;;;4988594;28;20471;-69
2022/06/06 02:13:08;;;;;;;32.33;9.20;;;16.50;46.50;;;;;;4987865;28;20855;-68
2022/06/06 02:15:35;;;;;;;32.67;9.07;;;16.40;46.20;;;;;;4986496;28;20832;-69
2022/06/06 02:18:04;;;;;;;32.30;10.27;;;16.40;46.20;;;;;;4988525;28;20460;-69
2022/06/06 02:20:32;;;;;;;32.10;9.17;;;16.40;46.10;;;;;;4988568;28;20495;-69
2022/06/06 02:23:00;;;;;;;33.50;10.20;;;16.30;46.10;;;;;;4988680;28;21012;-70
2022/06/06 02:25:28;;;;;;;37.47;10.13;;;16.30;46.00;;;;;;4987156;28;20476;-69
2022/06/06 02:27:56;;;;;;;36.37;9.90;;;16.30;46.00;;;;;;4988061;28;20456;-69
2022/06/06 02:30:25;;;;;;;33.67;9.33;;;16.30;46.00;;;;;;4988960;28;20484;-69
2022/06/06 02:32:52;;;;;;;31.67;9.77;;;16.20;46.00;;;;;;4988644;28;20477;-70
2022/06/06 02:35:24;;;;;;;33.07;9.80;;;16.20;46.00;;;;;;4986830;28;20468;-70
2022/06/06 02:37:52;;;;;;;34.67;8.90;;;16.10;46.00;;;;;;4987688;28;20448;-68
2022/06/06 02:40:21;;;;;;;32.87;9.03;;;16.10;46.00;;;;;;4987802;28;20464;-69
2022/06/06 02:42:48;;;;;;;30.70;9.00;;;16.10;45.80;;;;;;4987773;28;20587;-69
2022/06/06 02:45:16;;;;;;;32.90;8.80;;;16.00;45.60;;;;;;4986928;28;20846;-69
2022/06/06 02:47:44;;;;;;;36.33;10.67;;;16.00;45.60;;;;;;4991241;28;20461;-70
2022/06/06 02:50:11;;;;;;;30.60;8.87;;;16.00;45.90;;;;;;4991375;28;20563;-69
2022/06/06 02:52:39;;;;;;;37.20;10.20;;;15.90;46.00;;;;;;4991906;28;20717;-69
2022/06/06 02:55:08;;;;;;;31.67;9.90;;;15.90;46.20;;;;;;4989744;28;20461;-69
2022/06/06 02:57:37;;;;;;;32.73;9.83;;;15.90;46.20;;;;;;4991064;28;20946;-69
2022/06/06 03:00:06;;;;;;;31.83;8.87;;;15.90;46.50;;;;;;4991527;28;20822;-69
2022/06/06 03:02:33;;;;;;;34.60;9.80;;;15.80;46.50;;;;;;4990915;28;21031;-69
2022/06/06 03:05:00;;;;;;;33.73;9.30;;;15.80;46.50;;;;;;4991181;28;20455;-69
2022/06/06 03:07:33;;;;;;;31.80;7.80;;;15.80;46.60;;;;;;4989908;28;20471;-68
2022/06/06 03:10:10;;;;;;;34.67;9.20;;;15.80;46.60;;;;;;4991855;28;20704;-69
2022/06/06 03:12:53;;;;;;;33.67;7.80;;;15.80;46.70;;;;;;4990628;28;20486;-70
2022/06/06 03:15:32;;;;;;;30.90;8.57;;;15.80;46.90;;;;;;4991306;28;20456;-69
2022/06/06 03:21:10;;;;;;;33.10;9.77;;;15.80;46.90;;;;;;4991635;28;20415;-69
2022/06/06 03:23:56;;;;;;;34.97;8.50;;;15.80;46.50;;;;;;4990524;28;20484;-70
2022/06/06 03:26:38;;;;;;;33.37;7.77;;;15.80;46.70;;;;;;4990988;28;20815;-69
2022/06/06 03:29:17;;;;;;;33.10;9.03;;;15.70;46.60;;;;;;4971830;28;20472;-69
2022/06/06 03:31:52;;;;;;;32.77;8.10;;;15.60;46.40;;;;;;4969921;28;20899;-69
2022/06/06 03:34:25;;;;;;;32.10;8.03;;;15.70;46.50;;;;;;4971532;28;20453;-69
2022/06/06 03:37:02;;;;;;;30.33;7.73;;;15.60;46.40;;;;;;4970369;28;20483;-70
2022/06/06 03:39:36;;;;;;;29.90;7.83;;;15.60;46.90;;;;;;4991156;28;20440;-70
2022/06/06 03:42:13;;;;;;;31.83;8.13;;;15.70;46.60;;;;;;4990154;28;20708;-69
2022/06/06 03:44:55;;;;;;;31.93;8.00;;;15.70;46.90;;;;;;4990496;28;20506;-71
2022/06/06 03:47:29;;;;;;;31.30;7.17;;;15.70;46.90;;;;;;4989587;28;20843;-69
2022/06/06 03:50:02;;;;;;;34.80;7.53;;;15.80;46.70;;;;;;4971174;28;20450;-69
2022/06/06 03:52:40;;;;;;;31.67;7.87;;;15.80;46.70;;;;;;4971659;28;20482;-70
2022/06/06 03:55:15;;;;;;;32.83;7.50;;;15.80;46.80;;;;;;4970847;28;20461;-69
2022/06/06 03:57:45;;;;;;;31.13;7.67;;;15.80;46.80;;;;;;4969987;28;20750;-68
2022/06/06 04:00:14;;;;;;;29.40;6.50;;;15.90;46.80;;;;;;4989308;28;20555;-69
2022/06/06 04:02:44;;;;;;;29.53;7.30;;;15.90;47.10;;;;;;4989623;28;20476;-69
2022/06/06 04:05:13;;;;;;;30.77;7.20;;;16.00;46.60;;;;;;4989844;28;20480;-69
2022/06/06 04:07:40;;;;;;;30.20;7.10;;;16.00;46.50;;;;;;4990126;28;20468;-69
2022/06/06 04:10:08;;;;;;;30.77;7.37;;;16.10;46.30;;;;;;4989726;28;20484;-69
2022/06/06 04:13:02;;;;;;;29.57;7.50;;;16.10;46.10;;;;;;4989914;28;20477;-68
2022/06/06 04:15:38;;;;;;;29.50;6.70;;;16.20;46.40;;;;;;4990502;28;20468;-69
2022/06/06 04:18:18;;;;;;;31.63;7.03;;;16.20;46.00;;;;;;4989296;28;20468;-69
2022/06/06 04:20:56;;;;;;;29.90;7.00;;;16.20;46.20;;;;;;4989096;28;20492;-70
2022/06/06 04:23:41;;;;;;;28.93;7.17;;;16.30;46.20;;;;;;4991270;28;20507;-69
2022/06/06 04:26:14;;;;;;;30.17;7.03;;;16.30;46.20;;;;;;4989175;28;20465;-69
2022/06/06 04:28:53;;;;;;;28.60;6.30;;;16.40;46.30;;;;;;4989420;28;20844;-70
2022/06/06 04:31:28;;;;;;;29.27;5.80;;;16.90;47.70;;;;;;4988047;28;20468;-70
2022/06/06 04:34:01;;;;;;;30.40;6.33;;;18.00;46.20;;;;;;4989561;28;20940;-69
2022/06/06 04:36:33;;;;;;;31.00;5.93;;;19.20;42.70;;;;;;4989492;28;20461;-69
2022/06/06 04:39:10;;;;;;;31.00;5.67;;;20.20;38.60;;;;;;4989793;28;20453;-69
2022/06/06 04:41:43;;;;;;;30.77;5.00;;;21.10;35.50;;;;;;4987813;28;20469;-70
2022/06/06 04:44:17;;;;;;;29.77;4.90;;;21.80;32.80;;;;;;4989699;28;20472;-69
2022/06/06 04:46:50;;;;;;;29.17;4.60;;;22.20;30.50;;;;;;4989022;28;20471;-70
2022/06/06 04:49:17;;;;;;;31.57;5.07;;;22.70;28.40;;;;;;4989900;28;20452;-70
2022/06/06 04:51:46;;;;;;;28.10;4.93;;;22.70;26.70;;;;;;4987976;28;20495;-70
2022/06/06 04:54:16;;;;;;;27.97;4.73;;;22.50;26.90;;;;;;4989837;28;20468;-70
2022/06/06 04:56:44;;;;;;;28.27;4.87;;;22.60;27.50;;;;;;4989453;28;20449;-69
2022/06/06 04:59:14;;;;;;;27.57;4.27;;;23.20;26.50;;;;;;4989196;28;20905;-70
2022/06/06 05:01:42;;;;;;;28.93;4.20;;;24.10;24.20;;;;;;4987429;28;20886;-69
2022/06/06 05:04:09;;;;;;;29.33;4.60;;;25.10;21.70;;;;;;4988689;28;20485;-70
2022/06/06 05:07:09;;;;;;;28.60;3.97;;;25.90;18.90;;;;;;4989594;28;20465;-69
2022/06/06 05:10:00;;;;;;;30.37;4.40;;;26.60;17.80;;;;;;4974166;28;20484;-70
2022/06/06 05:12:47;;;;;;;27.67;4.40;;;27.40;16.00;;;;;;4987286;28;20479;-69
2022/06/06 05:15:30;;;;;;;26.90;4.03;;;28.10;14.70;;;;;;4989443;28;20441;-70
2022/06/06 05:18:33;;;;;;;28.73;4.00;;;28.70;13.20;;;;;;4988954;28;20464;-69
2022/06/06 05:21:15;;;;;;;26.87;4.07;;;29.40;12.00;;;;;;4982156;28;20460;-69
2022/06/06 05:24:00;;;;;;;25.83;3.77;;;30.10;10.70;;;;;;4969161;28;20501;-70
2022/06/06 05:26:54;;;;;;;25.17;3.67;;;30.70;9.00;;;;;;4968900;28;20468;-70
2022/06/06 05:29:42;;;;;;;29.13;3.47;;;31.20;9.30;;;;;;4968745;28;20470;-69
2022/06/06 05:32:25;;;;;;;25.27;4.00;;;32.00;8.50;;;;;;4972818;28;20476;-69
2022/06/06 05:35:00;;;;;;;25.77;3.97;;;32.50;7.10;;;;;;4988053;28;20445;-69
2022/06/06 05:37:38;;;;;;;26.93;3.53;;;33.00;6.30;;;;;;4988910;28;20448;-69
2022/06/06 05:40:17;;;;;;;27.30;4.17;;;33.40;5.60;;;;;;4987951;28;20460;-69
2022/06/06 05:42:55;;;;;;;25.70;3.97;;;33.60;4.90;;;;;;4986991;28;20476;-70
2022/06/06 05:45:33;;;;;;;25.03;3.50;;;33.60;4.30;;;;;;4988295;28;20484;-70
2022/06/06 05:48:17;;;;;;;25.30;3.90;;;33.50;4.10;;;;;;4988946;28;20599;-70
2022/06/06 05:50:59;;;;;;;24.00;3.37;;;33.00;4.50;;;;;;4987753;28;20464;-70
2022/06/06 05:53:56;;;;;;;30.00;4.10;;;31.80;5.30;;;;;;4986793;28;20484;-70
2022/06/06 05:56:35;;;;;;;26.67;4.10;;;30.60;7.00;;;;;;4986858;28;20472;-70
2022/06/06 05:59:16;;;;;;;25.23;4.47;;;29.50;8.70;;;;;;4988804;28;20456;-69
2022/06/06 06:02:15;;;;;;;27.80;4.77;;;28.50;10.00;;;;;;4987158;28;20477;-69
2022/06/06 06:05:11;;;;;;;25.60;4.07;;;27.40;11.90;;;;;;4981899;28;20492;-69
2022/06/06 06:07:46;;;;;;;25.73;4.57;;;26.60;13.30;;;;;;4986091;28;20464;-69
2022/06/06 06:10:17;;;;;;;26.00;4.80;;;26.60;14.70;;;;;;4969897;28;20454;-71
2022/06/06 06:13:12;;;;;;;25.60;4.30;;;27.30;14.00;;;;;;4969011;28;20485;-69
2022/06/06 06:15:40;;;;;;;26.90;4.37;;;27.10;14.10;;;;;;4968535;28;20462;-70
2022/06/06 06:18:11;;;;;;;26.73;4.43;;;28.30;13.70;;;;;;4968156;28;20469;-70
2022/06/06 06:20:45;;;;;;;25.70;4.10;;;29.70;10.90;;;;;;4967955;28;20462;-69
2022/06/06 06:23:16;;;;;;;28.33;4.43;;;29.70;9.70;;;;;;4972537;28;20485;-69
2022/06/06 06:25:45;;;;;;;26.57;5.00;;;29.00;10.60;;;;;;4973291;28;20500;-69
2022/06/06 06:28:13;;;;;;;27.00;4.63;;;28.50;11.80;;;;;;4973329;28;20477;-69
2022/06/06 06:30:51;;;;;;;25.30;4.23;;;28.50;11.30;;;;;;4990131;28;20496;-68
2022/06/06 06:33:28;;;;;;;27.57;4.60;;;28.30;11.80;;;;;;4993763;28;20571;-69
2022/06/06 06:36:06;;;;;;;26.47;4.90;;;28.10;12.30;;;;;;4993174;28;20460;-70
2022/06/06 06:38:49;;;;;;;26.67;4.70;;;27.80;12.50;;;;;;4993280;28;20471;-69
2022/06/06 06:41:25;;;;;;;26.80;5.00;;;27.20;13.20;;;;;;4992313;28;20472;-70
2022/06/06 06:44:00;;;;;;;26.70;4.80;;;26.60;14.10;;;;;;4993740;28;20463;-69
2022/06/06 06:46:33;;;;;;;27.40;4.63;;;26.00;15.20;;;;;;4993519;28;20456;-70
2022/06/06 06:49:11;;;;;;;26.37;5.33;;;25.50;16.20;;;;;;4992960;28;20445;-69
2022/06/06 06:51:48;;;;;;;24.87;4.63;;;25.20;17.00;;;;;;4991403;28;20961;-69
2022/06/06 06:54:35;;;;;;;25.93;5.13;;;24.90;17.90;;;;;;4992672;28;20463;-69
2022/06/06 06:57:17;;;;;;;26.03;4.57;;;24.60;18.60;;;;;;4993423;28;20452;-69
2022/06/06 06:59:59;;;;;;;26.50;5.43;;;24.70;19.30;;;;;;4992879;28;20460;-70
2022/06/06 07:08:34;;;;;;;25.37;4.70;;;24.20;19.70;;;;;;4973823;28;20476;-69
2022/06/06 07:11:37;;;;;;;26.47;4.90;;;24.10;20.20;;;;;;4979424;28;20789;-69
2022/06/06 07:14:12;;;;;;;25.23;5.00;;;24.10;20.60;;;;;;4990455;28;20488;-70
2022/06/06 07:16:40;;;;;;;26.10;5.30;;;24.00;20.90;;;;;;4992228;28;20441;-70
2022/06/06 07:19:10;;;;;;;25.60;5.60;;;23.80;21.00;;;;;;4992923;28;20456;-70
2022/06/06 07:21:40;;;;;;;26.50;5.10;;;23.80;21.50;;;;;;4991142;28;20465;-69
2022/06/06 07:24:10;;;;;;;26.47;5.70;;;23.90;21.50;;;;;;4992223;28;20820;-69
2022/06/06 07:26:39;;;;;;;25.80;4.77;;;25.30;20.60;;;;;;4993139;28;20492;-69
2022/06/06 07:29:07;;;;;;;27.70;4.87;;;27.20;16.80;;;;;;4991452;28;20522;-69
2022/06/06 07:31:48;;;;;;;26.30;4.23;;;28.50;13.20;;;;;;4990260;28;20477;-69
2022/06/06 07:34:40;;;;;;;28.37;5.20;;;28.70;12.00;;;;;;4992261;28;20447;-70
2022/06/06 07:37:21;;;;;;;28.17;4.43;;;28.90;11.30;;;;;;4992672;28;20531;-69
2022/06/06 07:40:01;;;;;;;27.70;4.97;;;29.20;11.60;;;;;;4991715;28;20953;-70
2022/06/06 07:42:49;;;;;;;28.17;4.50;;;29.60;11.10;;;;;;4990752;28;21163;-69
2022/06/06 07:45:25;;;;;;;26.20;4.17;;;29.60;10.30;;;;;;4988683;28;20488;-70
2022/06/06 07:48:23;;;;;;;26.50;5.27;;;29.20;10.90;;;;;;4991614;28;20859;-69
2022/06/06 07:50:56;;;;;;;25.47;4.20;;;28.90;10.90;;;;;;4972171;28;20461;-69
2022/06/06 07:53:31;;;;;;;27.03;4.30;;;28.50;11.70;;;;;;4990904;28;20488;-70
2022/06/06 07:56:07;;;;;;;26.23;4.70;;;28.50;11.80;;;;;;4992037;28;20464;-65
2022/06/06 07:58:41;;;;;;;32.13;4.97;;;28.30;11.60;;;;;;4991791;28;20456;-67
2022/06/06 08:01:15;;;;;;;27.20;4.40;;;28.20;11.80;;;;;;4991792;28;21039;-66
2022/06/06 08:03:49;;;;;;;25.60;4.80;;;28.30;12.10;;;;;;4988673;28;20484;-66
2022/06/06 08:06:35;;;;;;;27.07;4.70;;;29.50;11.60;;;;;;4992845;28;20473;-65
2022/06/06 08:09:43;;;;;;;27.30;4.47;;;29.80;9.30;;;;;;4991846;28;20457;-66
2022/06/06 08:12:34;;;;;;;27.30;4.70;;;29.30;10.10;;;;;;4992580;28;20489;-65
2022/06/06 08:15:16;;;;;;;24.97;4.20;;;28.60;10.40;;;;;;4990836;28;20467;-67
2022/06/06 08:17:56;;;;;;;26.87;4.70;;;28.20;11.50;;;;;;4992852;28;20457;-66
2022/06/06 08:20:29;;;;;;;27.57;4.43;;;27.90;11.50;;;;;;4992528;28;20484;-66
2022/06/06 08:23:00;;;;;;;27.77;4.70;;;27.60;11.90;;;;;;4992451;28;20476;-65
2022/06/06 08:25:29;;;;;;;27.13;5.67;;;27.30;12.60;;;;;;4989814;28;20520;-66
2022/06/06 08:27:59;;;;;;;30.63;5.77;;;27.10;13.10;;;;;;4991181;28;20520;-65
2022/06/06 08:30:26;;;;;;;26.17;4.87;;;27.00;13.20;;;;;;4991572;28;20468;-65
2022/06/06 08:32:53;;;;;;;34.77;5.40;;;26.90;13.20;;;;;;4983216;28;20485;-69
2022/06/06 08:35:23;;;;;;;27.87;5.23;;;27.00;13.70;;;;;;4986366;28;20471;-69
2022/06/06 08:38:13;;;;;;;28.23;5.10;;;27.10;13.20;;;;;;4990502;28;20468;-69
2022/06/06 08:41:16;;;;;;;26.10;4.83;;;27.70;13.40;;;;;;4990948;28;20549;-69
2022/06/06 08:44:02;;;;;;;25.70;4.30;;;30.10;10.80;;;;;;4990190;28;20484;-70
2022/06/06 08:46:42;;;;;;;26.57;4.50;;;32.10;7.20;;;;;;4971830;28;20982;-69
2022/06/06 08:52:11;;;;;;;25.10;3.87;;;36.40;1.70;;;;;;4969858;28;20804;-69
2022/06/06 08:55:05;;;;;;;24.27;4.20;;;37.70;1.00;;;;;;4972511;28;21008;-70
2022/06/06 08:57:46;;;;;;;24.37;4.30;;;40.10;1.00;;;;;;4988045;28;20457;-70
2022/06/06 09:00:40;;;;;;;24.10;4.20;;;42.50;1.00;;;;;;4987217;28;20452;-70
2022/06/06 09:03:39;;;;;;;23.13;3.97;;;44.30;1.00;;;;;;4989049;28;20477;-69
2022/06/06 09:06:43;;;;;;;22.97;3.07;;;44.00;1.00;;;;;;4987518;28;20508;-69
2022/06/06 09:09:42;;;;;;;21.50;2.70;;;44.00;1.00;;;;;;4988073;28;20461;-69
2022/06/06 09:12:49;;;;;;;22.40;2.90;;;45.20;1.00;;;;;;4989259;28;20488;-70
2022/06/06 09:15:56;;;;;;;22.00;3.10;;;47.20;1.00;;;;;;4988342;28;20830;-70
2022/06/06 09:18:58;;;;;;;23.20;3.23;;;48.70;1.00;;;;;;4989055;28;20663;-69
2022/06/06 09:21:58;;;;;;;22.60;3.27;;;48.40;1.00;;;;;;4988463;28;20464;-70
2022/06/06 09:25:21;;;;;;;21.87;3.40;;;48.00;1.00;;;;;;4988629;28;20445;-70
2022/06/06 09:28:40;;;;;;;21.70;2.30;;;46.10;1.00;;;;;;4987854;28;20514;-70
2022/06/06 09:31:43;;;;;;;22.00;2.60;;;43.80;1.00;;;;;;4988381;28;20500;-70
2022/06/06 09:34:56;;;;;;;23.13;2.83;;;41.60;1.00;;;;;;4985933;28;20830;-71
2022/06/06 09:37:37;;;;;;;22.30;2.97;;;39.60;1.00;;;;;;4987772;28;20475;-69
2022/06/06 09:40:18;;;;;;;23.30;3.10;;;38.40;1.00;;;;;;4988977;28;20500;-70
2022/06/06 09:43:04;;;;;;;24.60;3.57;;;37.40;1.00;;;;;;4988352;28;20484;-70
2022/06/06 09:45:34;;;;;;;23.60;2.90;;;36.70;1.00;;;;;;4988291;28;20469;-70
2022/06/06 09:48:48;;;;;;;23.93;3.30;;;36.00;1.00;;;;;;4987320;28;20996;-70
2022/06/06 09:52:06;;;;;;;23.97;3.23;;;35.40;1.00;;;;;;4988026;28;20484;-70
2022/06/06 10:01:46;;;;;;;26.60;3.40;;;33.10;1.00;;;;;;4988455;28;21027;-71
2022/06/06 10:04:54;;;;;;;24.63;3.20;;;32.30;1.60;;;;;;4988224;28;20467;-69
2022/06/06 10:08:03;;;;;;;24.07;3.53;;;31.90;2.10;;;;;;4986689;28;20464;-70
2022/06/06 10:11:05;;;;;;;25.50;4.17;;;31.80;1.80;;;;;;4977728;28;20480;-70
2022/06/06 10:13:56;;;;;;;23.17;2.73;;;32.00;2.20;;;;;;4988173;28;20484;-69
2022/06/06 10:16:45;;;;;;;25.57;3.10;;;31.90;2.20;;;;;;4987219;28;20483;-70
2022/06/06 10:19:27;;;;;;;25.33;3.87;;;31.80;2.70;;;;;;4968282;28;20484;-69
2022/06/06 10:22:18;;;;;;;25.57;3.37;;;31.60;2.40;;;;;;4968188;28;20508;-70
2022/06/06 10:25:20;;;;;;;24.17;3.20;;;31.30;2.60;;;;;;4968221;28;20465;-70
2022/06/06 10:28:07;;;;;;;24.60;3.20;;;31.10;4.00;;;;;;4919403;28;20508;-70
2022/06/06 10:30:44;;;;;;;24.10;3.07;;;31.00;3.10;;;;;;4987454;28;20786;-70
2022/06/06 10:33:48;;;;;;;24.90;3.07;;;30.80;4.30;;;;;;4988357;28;20891;-70
2022/06/06 10:36:41;;;;;;;27.50;3.97;;;30.50;5.00;;;;;;4987451;28;20640;-70
2022/06/06 10:39:39;;;;;;;25.57;3.40;;;30.20;5.30;;;;;;4986751;28;20573;-70
2022/06/06 10:42:35;;;;;;;28.97;3.40;;;30.00;4.70;;;;;;4987811;28;20480;-71
2022/06/06 10:45:17;;;;;;;25.07;3.57;;;29.60;5.30;;;;;;4980258;28;20507;-70
2022/06/06 10:48:18;;;;;;;25.13;4.03;;;29.60;5.90;;;;;;4987729;28;20472;-69
2022/06/06 10:54:45;;;;;;;23.90;3.60;;;29.80;5.80;;;;;;4944236;28;20481;-70
2022/06/06 10:58:00;;;;;;;23.97;3.20;;;29.90;6.40;;;;;;4968000;28;20938;-70
2022/06/06 11:00:50;;;;;;;23.93;3.23;;;29.80;7.20;;;;;;4984245;28;20465;-69
2022/06/06 11:03:50;;;;;;;25.63;3.60;;;29.60;6.20;;;;;;4987329;28;20663;-70
2022/06/06 11:07:03;;;;;;;23.77;3.13;;;29.50;7.00;;;;;;4987340;28;20973;-70
2022/06/06 11:09:59;;;;;;;25.30;3.63;;;29.40;7.20;;;;;;4990258;28;20476;-69
2022/06/06 11:12:59;;;;;;;26.33;4.00;;;29.30;7.20;;;;;;4978547;28;20835;-70
2022/06/06 11:15:36;;;;;;;25.63;3.13;;;29.40;8.60;;;;;;4984218;28;20464;-70
2022/06/06 11:18:35;;;;;;;25.00;3.80;;;29.60;8.10;;;;;;4991350;28;20445;-70
2022/06/06 11:21:26;;;;;;;26.10;3.80;;;29.70;7.00;;;;;;4983287;28;20464;-70
2022/06/06 11:23:59;;;;;;;25.03;3.20;;;29.70;7.10;;;;;;4990987;28;20928;-70
2022/06/06 11:26:58;;;;;;;25.80;3.37;;;29.70;5.60;;;;;;4990949;28;20974;-69
2022/06/06 11:30:03;;;;;;;25.63;4.63;;;29.50;5.80;;;;;;4989629;28;20473;-70
2022/06/06 11:32:50;;;;;;;25.37;3.20;;;29.40;6.10;;;;;;4990263;28;20968;-70
2022/06/06 11:35:35;;;;;;;24.70;3.40;;;29.30;5.50;;;;;;4990718;28;20451;-71
2022/06/06 11:38:34;;;;;;;26.23;3.23;;;29.10;6.50;;;;;;4991112;28;20445;-70
2022/06/06 11:41:40;;;;;;;25.70;3.43;;;28.80;6.40;;;;;;4990461;28;20516;-70
2022/06/06 11:44:30;;;;;;;25.10;3.37;;;28.60;6.40;;;;;;4967755;28;20465;-70
2022/06/06 11:47:29;;;;;;;26.80;4.00;;;28.50;7.70;;;;;;4990554;28;20515;-69
2022/06/06 11:50:32;;;;;;;25.20;3.67;;;28.30;7.00;;;;;;4991547;28;20449;-70
2022/06/06 11:53:22;;;;;;;25.13;3.77;;;28.20;8.10;;;;;;4939840;28;20485;-70
2022/06/06 11:55:58;;;;;;;24.90;3.43;;;28.20;8.90;;;;;;4971666;28;20454;-70
2022/06/06 11:59:02;;;;;;;26.50;3.10;;;28.20;8.60;;;;;;4971297;28;20556;-70
2022/06/06 12:01:58;;;;;;;23.97;3.30;;;28.10;6.80;;;;;;4976173;28;20487;-71
2022/06/06 12:05:04;;;;;;;25.30;3.40;;;27.90;8.70;;;;;;4973566;28;20468;-70
2022/06/06 12:08:12;;;;;;;25.20;3.63;;;27.90;7.80;;;;;;4990382;28;20826;-69
2022/06/06 12:10:48;;;;;;;24.57;3.10;;;27.80;7.90;;;;;;4956540;28;20461;-70
2022/06/06 12:13:54;;;;;;;24.77;3.30;;;27.80;8.00;;;;;;4988240;28;20484;-70
2022/06/06 12:16:32;;;;;;;24.80;3.10;;;27.80;8.00;;;;;;4989667;28;20833;-69
2022/06/06 12:19:27;;;;;;;24.17;3.17;;;27.80;5.90;;;;;;4988826;28;21001;-69
2022/06/06 12:22:20;;;;;;;24.63;3.40;;;27.70;9.10;;;;;;4985844;28;20501;-70
2022/06/06 12:25:26;;;;;;;25.07;3.00;;;27.90;7.90;;;;;;4990491;28;20472;-71
2022/06/06 12:28:11;;;;;;;24.60;2.87;;;27.90;7.30;;;;;;4989966;28;20441;-71
2022/06/06 12:30:54;;;;;;;24.80;3.50;;;27.90;6.70;;;;;;4989413;28;20747;-71
2022/06/06 12:33:28;;;;;;;24.47;2.80;;;27.90;7.40;;;;;;4988377;28;20495;-69
2022/06/06 12:36:00;;;;;;;24.97;4.00;;;27.90;7.20;;;;;;4989692;28;20438;-70
2022/06/06 12:38:42;;;;;;;26.03;3.60;;;27.90;6.70;;;;;;4990284;28;20468;-70
2022/06/06 12:41:24;;;;;;;26.93;3.07;;;27.90;7.40;;;;;;4989671;28;20456;-70
2022/06/06 12:47:27;;;;;;;25.40;3.17;;;28.20;6.60;;;;;;4989495;28;20988;-70
2022/06/06 12:50:10;;;;;;;24.70;2.90;;;28.50;7.60;;;;;;4988653;28;20456;-70
2022/06/06 12:53:13;;;;;;;24.43;3.07;;;28.60;6.90;;;;;;4986832;28;20483;-71
2022/06/06 12:56:16;;;;;;;24.37;3.20;;;28.60;6.60;;;;;;4962509;28;20484;-70
2022/06/06 12:58:46;;;;;;;25.90;3.17;;;28.50;6.30;;;;;;4988430;28;20456;-70
2022/06/06 13:01:39;;;;;;;25.80;2.87;;;28.30;6.20;;;;;;4988311;28;20697;-70
2022/06/06 13:04:33;;;;;;;25.33;3.13;;;28.30;7.80;;;;;;4987617;28;21024;-70
2022/06/06 13:07:17;;;;;;;25.17;3.00;;;28.20;7.50;;;;;;4959594;28;20563;-70
2022/06/06 13:10:07;;;;;;;24.33;3.13;;;28.20;6.70;;;;;;4989638;28;20465;-69
2022/06/06 13:12:51;;;;;;;25.50;3.70;;;28.10;8.00;;;;;;4988093;28;20488;-69
2022/06/06 13:15:28;;;;;;;24.93;3.03;;;28.00;8.60;;;;;;4988086;28;20469;-70
2022/06/06 13:18:08;;;;;;;26.83;2.80;;;28.00;8.30;;;;;;4989548;28;20460;-69
2022/06/06 13:20:41;;;;;;;25.10;3.90;;;28.00;9.20;;;;;;4989262;28;20460;-70
2022/06/06 13:23:29;;;;;;;24.40;3.73;;;28.00;7.70;;;;;;4988291;28;20476;-69
2022/06/06 13:26:24;;;;;;;24.97;3.67;;;27.90;8.30;;;;;;4988021;28;20837;-70
2022/06/06 13:28:55;;;;;;;24.67;2.83;;;27.80;7.20;;;;;;4988823;28;20504;-70
2022/06/06 13:31:33;;;;;;;24.50;3.13;;;27.70;7.00;;;;;;4987768;28;20468;-69
2022/06/06 13:34:23;;;;;;;25.67;3.30;;;27.80;7.30;;;;;;4988501;28;20468;-70
2022/06/06 13:37:07;;;;;;;27.50;4.10;;;27.80;6.20;;;;;;4983820;28;20639;-70
2022/06/06 13:39:54;;;;;;;27.03;3.53;;;27.60;7.20;;;;;;4988904;28;20476;-69
2022/06/06 13:42:35;;;;;;;25.70;3.20;;;27.50;6.10;;;;;;4989336;28;20571;-70
2022/06/06 13:45:16;;;;;;;25.27;3.07;;;27.50;7.60;;;;;;4988486;28;20530;-70
2022/06/06 13:48:23;;;;;;;25.00;3.03;;;27.40;7.40;;;;;;4987115;28;20876;-70
2022/06/06 13:51:01;;;;;;;25.50;3.10;;;27.40;7.90;;;;;;4968740;28;20555;-70
2022/06/06 13:53:59;;;;;;;24.90;3.80;;;27.40;7.50;;;;;;4988703;28;20593;-69
2022/06/06 13:56:43;;;;;;;24.77;2.90;;;27.60;8.50;;;;;;4988560;28;20460;-69
2022/06/06 13:59:27;;;;;;;24.93;3.60;;;27.70;7.20;;;;;;4987971;28;20547;-69
2022/06/06 14:02:04;;;;;;;25.47;3.50;;;27.60;7.10;;;;;;4987499;28;20993;-70
2022/06/06 14:04:48;;;;;;;25.60;3.70;;;27.40;7.00;;;;;;4987325;28;20518;-70
2022/06/06 14:07:45;;;;;;;25.47;3.10;;;27.30;8.30;;;;;;4987865;28;20872;-70
2022/06/06 14:10:16;;;;;;;25.70;3.80;;;27.00;7.70;;;;;;4983517;28;20556;-69
2022/06/06 14:13:00;;;;;;;25.97;3.63;;;26.80;7.80;;;;;;4987695;28;20583;-69
2022/06/06 14:15:27;;;;;;;25.10;3.20;;;26.70;8.30;;;;;;4988066;28;20551;-70
2022/06/06 14:17:58;;;;;;;27.50;3.33;;;26.60;8.30;;;;;;4988335;28;20467;-69
2022/06/06 14:20:34;;;;;;;24.53;3.10;;;26.60;8.70;;;;;;4987287;28;20468;-69
2022/06/06 14:23:20;;;;;;;26.50;3.87;;;26.50;10.10;;;;;;4988339;28;20896;-70